createdAt,value
2023-05-02T00:00:21.570Z,56.10
2023-05-02T00:02:50.702Z,57.50
2023-05-02T00:05:19.616Z,59.00
2023-05-02T00:07:48.179Z,59.70
2023-05-02T00:10:16.580Z,59.70
2023-05-02T00:12:44.901Z,62.00
2023-05-02T00:15:13.252Z,64.00
2023-05-02T00:17:43.898Z,65.00
2023-05-02T00:20:13.284Z,66.30
2023-05-02T00:22:41.768Z,65.60
2023-05-02T00:25:16.037Z,65.10
2023-05-02T00:27:48.964Z,65.50
2023-05-02T00:30:18.433Z,64.60
2023-05-02T00:32:48.929Z,63.80
2023-05-02T00:35:18.071Z,62.00
2023-05-02T00:37:46.544Z,60.30
2023-05-02T00:40:16.190Z,61.00
2023-05-02T00:42:44.699Z,60.20
2023-05-02T00:45:13.007Z,60.10
2023-05-02T00:47:41.473Z,60.20
2023-05-02T00:50:13.225Z,60.80
2023-05-02T00:52:42.125Z,60.60
2023-05-02T00:55:10.924Z,60.00
2023-05-02T00:57:39.646Z,60.00
2023-05-02T01:00:09.582Z,60.40
2023-05-02T01:02:49.196Z,61.80
2023-05-02T01:05:25.634Z,62.40
2023-05-02T01:08:10.859Z,62.10
2023-05-02T01:10:49.185Z,62.20
2023-05-02T01:13:23.188Z,60.00
2023-05-02T01:15:54.711Z,57.20
2023-05-02T01:18:25.813Z,57.60
2023-05-02T01:21:01.021Z,58.70
2023-05-02T01:23:42.200Z,57.60
2023-05-02T01:26:18.878Z,57.10
2023-05-02T01:29:01.120Z,54.70
2023-05-02T01:31:33.216Z,55.80
2023-05-02T01:34:03.447Z,53.70
2023-05-02T01:36:34.068Z,52.00
2023-05-02T01:39:03.534Z,52.10
2023-05-02T01:41:34.993Z,54.60
2023-05-02T01:44:06.100Z,53.50
2023-05-02T01:46:38.413Z,54.00
2023-05-02T01:49:09.263Z,56.30
2023-05-02T01:51:41.936Z,55.00
2023-05-02T01:54:12.056Z,53.40
2023-05-02T01:56:41.833Z,52.20
2023-05-02T01:59:14.365Z,55.10
2023-05-02T02:01:44.955Z,54.70
2023-05-02T02:04:16.204Z,54.70
2023-05-02T02:06:49.806Z,53.30
2023-05-02T02:09:18.432Z,52.50
2023-05-02T02:11:54.157Z,50.20
2023-05-02T02:14:28.118Z,49.90
2023-05-02T02:17:01.030Z,53.00
2023-05-02T02:19:33.261Z,54.50
2023-05-02T02:22:04.404Z,53.60
2023-05-02T02:24:35.936Z,52.90
2023-05-02T02:27:05.980Z,55.00
2023-05-02T02:29:38.726Z,55.90
2023-05-02T02:32:08.130Z,56.50
2023-05-02T02:34:38.358Z,56.40
2023-05-02T02:37:14.160Z,57.70
2023-05-02T02:39:51.827Z,57.90
2023-05-02T02:42:35.425Z,57.70
2023-05-02T02:45:13.018Z,55.60
2023-05-02T02:47:46.128Z,55.00
2023-05-02T02:50:21.469Z,57.30
2023-05-02T02:52:55.004Z,56.20
2023-05-02T02:55:37.765Z,56.10
2023-05-02T02:58:17.670Z,57.90
2023-05-02T03:00:49.786Z,58.70
2023-05-02T03:03:19.658Z,60.70
2023-05-02T03:05:49.502Z,58.70
2023-05-02T03:08:17.994Z,55.60
2023-05-02T03:10:46.410Z,54.00
2023-05-02T03:13:15.112Z,56.90
2023-05-02T03:16:24.905Z,56.50
2023-05-02T03:18:53.364Z,57.70
2023-05-02T03:21:21.882Z,57.80
2023-05-02T03:23:50.840Z,55.80
2023-05-02T03:26:19.306Z,53.70
2023-05-02T03:28:49.043Z,52.90
2023-05-02T03:31:26.694Z,54.80
2023-05-02T03:33:57.211Z,57.60
2023-05-02T03:36:26.122Z,57.50
2023-05-02T03:38:56.200Z,57.60
2023-05-02T03:41:26.376Z,55.00
2023-05-02T03:44:02.120Z,56.30
2023-05-02T03:46:32.671Z,57.50
2023-05-02T03:49:02.090Z,60.80
2023-05-02T03:51:30.743Z,64.90
2023-05-02T03:54:01.985Z,63.50
2023-05-02T03:56:31.077Z,62.60
2023-05-02T03:59:14.647Z,60.60
2023-05-02T04:01:45.011Z,58.50
2023-05-02T04:04:15.671Z,58.10
2023-05-02T04:06:49.522Z,57.50
2023-05-02T04:09:19.244Z,58.80
2023-05-02T04:11:55.093Z,59.10
2023-05-02T04:14:25.042Z,56.80
2023-05-02T04:16:57.613Z,54.00
2023-05-02T04:19:36.001Z,54.30
2023-05-02T04:22:05.674Z,54.10
2023-05-02T04:24:38.643Z,52.60
2023-05-02T04:27:08.127Z,55.00
2023-05-02T04:29:36.929Z,57.70
2023-05-02T04:32:08.925Z,59.30
2023-05-02T04:34:37.941Z,61.40
2023-05-02T04:37:06.346Z,61.40
2023-05-02T04:39:36.009Z,60.00
2023-05-02T04:42:09.399Z,57.60
2023-05-02T04:44:44.979Z,55.30
2023-05-02T04:47:17.046Z,56.00
2023-05-02T04:49:46.985Z,57.80
2023-05-02T04:52:15.892Z,59.70
2023-05-02T04:54:44.345Z,61.10
2023-05-02T04:57:14.707Z,60.60
2023-05-02T04:59:47.704Z,59.70
2023-05-02T05:02:17.623Z,57.90
2023-05-02T05:04:47.412Z,56.10
2023-05-02T05:07:17.260Z,54.90
2023-05-02T05:09:48.185Z,54.40
2023-05-02T05:12:16.845Z,54.20
2023-05-02T05:14:45.674Z,53.80
2023-05-02T05:17:15.671Z,53.80
2023-05-02T05:19:45.923Z,56.80
2023-05-02T05:22:14.242Z,60.70
2023-05-02T05:24:43.043Z,61.70
2023-05-02T05:27:11.885Z,61.40
2023-05-02T05:29:41.057Z,60.10
2023-05-02T05:32:09.899Z,58.80
2023-05-02T05:34:39.487Z,58.00
2023-05-02T05:37:09.408Z,56.80
2023-05-02T05:39:39.964Z,56.80
2023-05-02T05:42:09.854Z,57.30
2023-05-02T05:44:40.884Z,57.30
2023-05-02T05:47:10.201Z,58.30
2023-05-02T05:49:39.149Z,59.20
2023-05-02T05:52:12.186Z,59.30
2023-05-02T05:54:40.857Z,62.20
2023-05-02T05:57:10.604Z,65.20
2023-05-02T05:59:39.938Z,66.30
2023-05-02T06:02:09.636Z,65.80
2023-05-02T06:04:39.827Z,65.00
2023-05-02T06:07:08.733Z,63.90
2023-05-02T06:09:38.616Z,63.20
2023-05-02T06:12:07.972Z,61.70
2023-05-02T06:14:37.784Z,61.60
2023-05-02T06:17:06.351Z,61.10
2023-05-02T06:19:35.405Z,61.00
2023-05-02T06:22:04.411Z,61.10
2023-05-02T06:24:32.692Z,62.00
2023-05-02T06:27:02.612Z,61.30
2023-05-02T06:29:31.149Z,60.00
2023-05-02T06:31:59.715Z,59.40
2023-05-02T06:34:28.151Z,59.20
2023-05-02T06:36:57.411Z,60.30
2023-05-02T06:39:26.302Z,60.10
2023-05-02T06:41:58.907Z,60.50
2023-05-02T06:44:30.116Z,62.30
2023-05-02T06:46:58.942Z,64.40
2023-05-02T06:49:28.318Z,64.10
2023-05-02T06:51:57.068Z,63.90
2023-05-02T06:54:26.212Z,63.40
2023-05-02T06:56:55.197Z,63.30
2023-05-02T06:59:24.642Z,61.20
2023-05-02T07:01:54.343Z,60.40
2023-05-02T07:04:22.769Z,61.20
2023-05-02T07:06:51.168Z,60.90
2023-05-02T07:09:20.136Z,57.70
2023-05-02T07:11:48.481Z,57.40
2023-05-02T07:14:16.850Z,55.50
2023-05-02T07:16:45.378Z,54.90
2023-05-02T07:19:15.521Z,54.80
2023-05-02T07:21:43.952Z,53.60
2023-05-02T07:24:12.936Z,53.20
2023-05-02T07:26:41.556Z,53.20
2023-05-02T07:29:10.318Z,51.60
2023-05-02T07:31:39.542Z,49.60
2023-05-02T07:34:08.068Z,50.30
2023-05-02T07:36:38.442Z,49.70
2023-05-02T07:39:06.804Z,50.20
2023-05-02T07:41:35.143Z,49.70
2023-05-02T07:44:03.785Z,51.00
2023-05-02T07:46:33.081Z,50.90
2023-05-02T07:49:01.443Z,50.00
2023-05-02T07:51:30.220Z,48.50
2023-05-02T07:54:02.111Z,50.00
2023-05-02T07:56:32.360Z,50.00
2023-05-02T07:59:00.893Z,48.50
2023-05-02T08:01:30.135Z,49.90
2023-05-02T08:03:58.839Z,49.80
2023-05-02T08:06:27.623Z,51.60
2023-05-02T08:08:56.327Z,49.90
2023-05-02T08:11:26.925Z,50.00
2023-05-02T08:13:55.863Z,48.90
2023-05-02T08:16:27.728Z,49.50
2023-05-02T08:18:57.378Z,47.80
2023-05-02T08:21:26.025Z,46.40
2023-05-02T08:23:58.648Z,47.90
2023-05-02T08:26:29.181Z,45.70
2023-05-02T08:28:59.005Z,45.20
2023-05-02T08:31:27.410Z,42.10
2023-05-02T08:33:56.137Z,42.60
2023-05-02T08:36:24.536Z,43.70
2023-05-02T08:38:53.008Z,43.10
2023-05-02T08:41:23.983Z,43.10
2023-05-02T08:43:54.644Z,42.70
2023-05-02T08:46:24.984Z,42.20
2023-05-02T08:48:54.950Z,41.90
2023-05-02T08:51:26.169Z,39.50
2023-05-02T08:53:56.638Z,38.80
2023-05-02T08:56:25.494Z,37.80
2023-05-02T08:58:55.441Z,38.20
2023-05-02T09:01:25.453Z,36.90
2023-05-02T09:03:55.996Z,38.60
2023-05-02T09:06:24.401Z,37.30
2023-05-02T09:08:53.816Z,35.50
2023-05-02T09:11:22.725Z,38.90
2023-05-02T09:13:52.305Z,36.20
2023-05-02T09:16:24.093Z,39.10
2023-05-02T09:18:54.808Z,39.30
2023-05-02T09:21:25.410Z,37.40
2023-05-02T09:23:55.796Z,35.30
2023-05-02T09:26:28.360Z,36.30
2023-05-02T09:28:58.316Z,33.80
2023-05-02T09:31:54.314Z,34.00
2023-05-02T09:34:22.156Z,32.40
2023-05-02T09:36:54.441Z,33.50
2023-05-02T09:39:26.029Z,34.00
2023-05-02T09:41:55.623Z,33.80
2023-05-02T09:44:25.964Z,31.70
2023-05-02T09:46:57.494Z,32.60
2023-05-02T09:49:41.594Z,34.60
2023-05-02T09:52:14.260Z,33.80
2023-05-02T09:54:43.061Z,33.80
2023-05-02T09:57:12.145Z,34.00
2023-05-02T09:59:41.513Z,33.40
2023-05-02T10:02:13.451Z,31.60
2023-05-02T10:04:42.943Z,33.70
2023-05-02T10:07:13.299Z,34.50
2023-05-02T10:09:45.610Z,36.50
2023-05-02T10:12:17.263Z,37.30
2023-05-02T10:14:50.853Z,36.80
2023-05-02T10:17:29.862Z,35.60
2023-05-02T10:20:02.429Z,35.50
2023-05-02T10:22:32.094Z,37.90
2023-05-02T10:25:02.268Z,36.60
2023-05-02T10:27:32.286Z,36.60
2023-05-02T10:30:02.506Z,37.10
2023-05-02T10:32:34.740Z,35.00
2023-05-02T10:35:06.452Z,37.50
2023-05-02T10:37:37.309Z,37.50
2023-05-02T10:40:07.157Z,35.80
2023-05-02T10:42:41.043Z,36.50
2023-05-02T10:45:14.646Z,34.60
2023-05-02T10:47:45.376Z,34.90
2023-05-02T10:50:13.839Z,33.10
2023-05-02T10:52:43.092Z,36.10
2023-05-02T10:55:18.063Z,35.80
2023-05-02T10:58:23.835Z,30.30
2023-05-02T11:00:52.321Z,32.10
2023-05-02T11:03:58.523Z,31.10
2023-05-02T11:06:28.384Z,33.30
2023-05-02T11:09:31.084Z,34.70
2023-05-02T11:12:05.460Z,35.70
2023-05-02T11:14:49.796Z,36.50
2023-05-02T11:17:19.965Z,34.90
2023-05-02T11:20:27.964Z,35.10
2023-05-02T11:23:00.459Z,34.40
2023-05-02T11:25:33.264Z,33.40
2023-05-02T11:28:02.165Z,34.80
2023-05-02T11:30:42.535Z,34.30
2023-05-02T11:33:20.025Z,36.50
2023-05-02T11:35:50.018Z,34.20
2023-05-02T11:38:27.812Z,35.20
2023-05-02T11:41:00.950Z,35.00
2023-05-02T11:43:32.137Z,33.30
2023-05-02T11:46:05.990Z,33.80
2023-05-02T11:48:35.007Z,31.40
2023-05-02T11:51:05.779Z,32.10
2023-05-02T11:53:42.774Z,32.20
2023-05-02T11:56:11.242Z,30.90
2023-05-02T11:58:40.204Z,31.00
2023-05-02T12:01:16.032Z,32.10
2023-05-02T12:03:45.183Z,31.30
2023-05-02T12:06:15.964Z,28.00
2023-05-02T12:08:46.769Z,33.10
2023-05-02T12:11:16.456Z,27.10
2023-05-02T12:13:49.988Z,28.90
2023-05-02T12:16:20.221Z,28.40
2023-05-02T12:18:50.648Z,27.20
2023-05-02T12:21:19.291Z,28.10
2023-05-02T12:23:49.390Z,29.10
2023-05-02T12:26:19.422Z,30.30
2023-05-02T12:28:50.649Z,28.70
2023-05-02T12:31:19.396Z,28.10
2023-05-02T12:33:50.273Z,29.30
2023-05-02T12:36:20.552Z,29.70
2023-05-02T12:38:55.136Z,29.90
2023-05-02T12:41:34.096Z,28.60
2023-05-02T12:44:02.442Z,28.40
2023-05-02T12:46:32.196Z,26.90
2023-05-02T12:49:06.135Z,29.00
2023-05-02T12:51:34.985Z,27.00
2023-05-02T12:54:06.892Z,28.20
2023-05-02T12:56:44.210Z,25.30
2023-05-02T12:59:27.812Z,27.00
2023-05-02T13:01:57.602Z,28.30
2023-05-02T13:04:36.543Z,27.90
2023-05-02T13:07:04.841Z,28.50
2023-05-02T13:09:34.725Z,28.30
2023-05-02T13:12:03.972Z,25.40
2023-05-02T13:14:32.859Z,28.60
2023-05-02T13:17:01.369Z,25.00
2023-05-02T13:19:31.425Z,26.20
2023-05-02T13:22:00.288Z,25.20
2023-05-02T13:24:31.050Z,24.90
2023-05-02T13:27:02.005Z,23.60
2023-05-02T13:29:31.656Z,25.00
2023-05-02T13:32:00.258Z,22.50
2023-05-02T13:34:28.676Z,22.00
2023-05-02T13:36:59.332Z,23.40
2023-05-02T13:39:27.706Z,24.70
2023-05-02T13:41:57.755Z,22.80
2023-05-02T13:44:27.922Z,21.50
2023-05-02T13:46:56.707Z,22.00
2023-05-02T13:49:26.474Z,25.50
2023-05-02T13:51:55.126Z,25.30
2023-05-02T13:54:23.805Z,24.80
2023-05-02T13:56:53.403Z,23.30
2023-05-02T13:59:21.870Z,24.40
2023-05-02T14:01:51.988Z,21.70
2023-05-02T14:04:21.708Z,23.40
2023-05-02T14:06:51.448Z,25.30
2023-05-02T14:09:20.712Z,22.70
2023-05-02T14:11:49.321Z,24.20
2023-05-02T14:14:17.851Z,24.00
2023-05-02T14:16:52.445Z,23.70
2023-05-02T14:19:20.904Z,22.40
2023-05-02T14:21:50.123Z,24.00
2023-05-02T14:24:19.455Z,25.50
2023-05-02T14:26:49.369Z,22.50
2023-05-02T14:29:21.908Z,23.30
2023-05-02T14:31:54.437Z,21.60
2023-05-02T14:34:26.940Z,24.00
2023-05-02T14:37:10.901Z,24.10
2023-05-02T14:39:56.239Z,23.90
2023-05-02T14:42:42.475Z,24.00
2023-05-02T14:45:27.204Z,24.20
2023-05-02T14:48:14.080Z,24.00
2023-05-02T14:50:58.977Z,21.10
2023-05-02T14:53:43.694Z,22.40
2023-05-02T14:56:27.832Z,20.50
2023-05-02T14:59:11.361Z,23.50
2023-05-02T15:01:54.960Z,20.30
2023-05-02T15:04:40.355Z,20.90
2023-05-02T15:07:16.349Z,21.30
2023-05-02T15:09:46.945Z,22.00
2023-05-02T15:13:01.849Z,20.20
2023-05-02T15:15:48.158Z,21.50
2023-05-02T15:18:36.527Z,22.20
2023-05-02T15:21:21.349Z,21.90
2023-05-02T15:23:50.383Z,21.00
2023-05-02T15:26:19.255Z,23.60
2023-05-02T15:28:51.115Z,23.10
2023-05-02T15:31:24.345Z,20.80
2023-05-02T15:33:57.709Z,21.50
2023-05-02T15:36:44.015Z,20.90
2023-05-02T15:39:13.622Z,20.80
2023-05-02T15:41:47.717Z,18.80
2023-05-02T15:44:17.589Z,20.30
2023-05-02T15:46:47.389Z,18.30
2023-05-02T15:49:16.324Z,18.70
2023-05-02T15:51:46.259Z,16.80
2023-05-02T15:54:16.040Z,16.40
2023-05-02T15:56:45.366Z,16.60
2023-05-02T15:59:14.777Z,18.10
2023-05-02T16:01:46.581Z,16.20
2023-05-02T16:04:16.185Z,16.30
2023-05-02T16:06:46.834Z,17.10
2023-05-02T16:09:31.247Z,18.50
2023-05-02T16:12:01.407Z,18.70
2023-05-02T16:14:30.802Z,20.10
2023-05-02T16:17:00.278Z,21.20
2023-05-02T16:19:43.668Z,21.10
2023-05-02T16:22:15.198Z,22.10
2023-05-02T16:24:45.344Z,23.50
2023-05-02T16:27:26.795Z,22.20
2023-05-02T16:30:07.512Z,23.20
2023-05-02T16:32:51.655Z,23.70
2023-05-02T16:35:30.687Z,23.20
2023-05-02T16:38:15.340Z,22.20
2023-05-02T16:40:58.889Z,21.60
2023-05-02T16:43:42.366Z,22.20
2023-05-02T16:46:26.784Z,22.00
2023-05-02T16:49:10.222Z,22.10
2023-05-02T16:51:56.287Z,22.00
2023-05-02T16:54:41.316Z,21.70
2023-05-02T16:57:12.096Z,21.80
2023-05-02T16:59:41.799Z,21.50
2023-05-02T17:02:11.209Z,21.70
2023-05-02T17:04:40.833Z,21.90
2023-05-02T17:07:11.804Z,22.00
2023-05-02T17:09:44.552Z,21.80
2023-05-02T17:12:14.963Z,21.20
2023-05-02T17:14:44.466Z,21.30
2023-05-02T17:17:19.101Z,20.70
2023-05-02T17:19:51.396Z,21.70
2023-05-02T17:22:21.939Z,21.90
2023-05-02T17:24:54.874Z,20.50
2023-05-02T17:27:24.812Z,22.00
2023-05-02T17:29:54.025Z,22.30
2023-05-02T17:32:24.090Z,21.80
2023-05-02T17:34:52.919Z,21.80
2023-05-02T17:37:31.146Z,22.50
2023-05-02T17:40:05.847Z,23.00
2023-05-02T17:42:46.127Z,22.40
2023-05-02T17:45:16.814Z,23.00
2023-05-02T17:47:51.235Z,23.10
2023-05-02T17:50:22.483Z,23.10
2023-05-02T17:53:00.571Z,23.30
2023-05-02T17:55:40.889Z,23.30
2023-05-02T17:58:17.090Z,23.20
2023-05-02T18:00:52.737Z,23.30
2023-05-02T18:03:25.724Z,23.30
2023-05-02T18:05:59.088Z,23.20
2023-05-02T18:08:33.994Z,23.60
2023-05-02T18:11:38.634Z,23.90
2023-05-02T18:14:15.436Z,24.50
2023-05-02T18:16:51.699Z,23.60
2023-05-02T18:19:25.328Z,23.60
2023-05-02T18:21:55.504Z,23.60
2023-05-02T18:24:24.995Z,23.70
2023-05-02T18:26:55.152Z,23.70
2023-05-02T18:29:24.365Z,23.70
2023-05-02T18:31:54.255Z,23.70
2023-05-02T18:34:24.022Z,23.50
2023-05-02T18:36:54.375Z,23.60
2023-05-02T18:39:24.361Z,24.10
2023-05-02T18:41:57.613Z,23.60
2023-05-02T18:44:33.571Z,25.00
2023-05-02T18:47:03.786Z,24.40
2023-05-02T18:49:33.030Z,24.40
2023-05-02T18:52:03.079Z,24.30
2023-05-02T18:54:33.477Z,24.60
2023-05-02T18:57:05.271Z,24.30
2023-05-02T18:59:33.932Z,24.30
2023-05-02T19:02:06.267Z,25.00
2023-05-02T19:04:36.182Z,25.10
2023-05-02T19:07:05.363Z,25.30
2023-05-02T19:09:35.711Z,25.20
2023-05-02T19:12:06.576Z,25.20
2023-05-02T19:14:35.965Z,25.00
2023-05-02T19:17:06.753Z,25.00
2023-05-02T19:19:37.495Z,26.30
2023-05-02T19:22:06.712Z,26.10
2023-05-02T19:24:36.640Z,25.60
2023-05-02T19:27:09.450Z,26.20
2023-05-02T19:29:39.714Z,26.50
2023-05-02T19:32:10.649Z,25.90
2023-05-02T19:34:40.694Z,26.70
2023-05-02T19:37:09.438Z,27.10
2023-05-02T19:39:38.613Z,27.30
2023-05-02T19:42:09.676Z,27.20
2023-05-02T19:44:40.191Z,27.20
2023-05-02T19:47:09.342Z,27.10
2023-05-02T19:49:39.177Z,27.30
2023-05-02T19:52:09.206Z,27.70
2023-05-02T19:54:39.042Z,27.40
2023-05-02T19:57:09.738Z,27.40
2023-05-02T19:59:39.274Z,27.30
2023-05-02T20:02:09.850Z,27.20
2023-05-02T20:04:41.340Z,27.20
2023-05-02T20:07:09.687Z,26.40
2023-05-02T20:09:38.002Z,27.00
2023-05-02T20:12:10.397Z,26.50
2023-05-02T20:14:40.817Z,26.80
2023-05-02T20:17:10.264Z,26.70
2023-05-02T20:19:38.782Z,27.20
2023-05-02T20:22:07.211Z,26.60
2023-05-02T20:24:35.656Z,26.90
2023-05-02T20:27:04.953Z,26.90
2023-05-02T20:29:34.891Z,27.10
2023-05-02T20:32:03.575Z,27.60
2023-05-02T20:34:35.612Z,27.80
2023-05-02T20:37:06.938Z,27.20
2023-05-02T20:39:35.510Z,27.90
2023-05-02T20:42:04.319Z,27.50
2023-05-02T20:44:34.737Z,27.20
2023-05-02T20:47:04.009Z,27.00
2023-05-02T20:49:37.715Z,27.30
2023-05-02T20:52:07.036Z,27.00
2023-05-02T20:54:35.728Z,28.10
2023-05-02T20:57:04.537Z,28.00
2023-05-02T20:59:34.738Z,27.40
2023-05-02T21:02:18.137Z,26.20
2023-05-02T21:05:01.571Z,27.30
2023-05-02T21:07:45.090Z,27.20
2023-05-02T21:10:31.385Z,27.60
2023-05-02T21:13:14.963Z,27.60
2023-05-02T21:15:59.840Z,28.20
2023-05-02T21:18:43.679Z,29.30
2023-05-02T21:21:27.071Z,30.30
2023-05-02T21:24:10.681Z,32.10
2023-05-02T21:26:54.118Z,32.60
2023-05-02T21:29:37.863Z,31.80
2023-05-02T21:32:23.143Z,31.00
2023-05-02T21:35:09.253Z,30.70
2023-05-02T21:37:52.568Z,30.10
2023-05-02T21:40:37.477Z,28.40
2023-05-02T21:43:21.128Z,29.10
2023-05-02T21:46:04.650Z,29.80
2023-05-02T21:48:51.092Z,29.70
2023-05-02T21:51:34.664Z,30.20
2023-05-02T21:54:17.985Z,29.90
2023-05-02T21:57:02.550Z,29.00
2023-05-02T21:59:46.335Z,30.30
2023-05-02T22:02:30.928Z,30.60
2023-05-02T22:05:16.503Z,31.10
2023-05-02T22:07:52.345Z,32.10
2023-05-02T22:10:36.798Z,31.60
2023-05-02T22:13:21.128Z,30.20
2023-05-02T22:16:04.991Z,29.90
2023-05-02T22:18:49.746Z,30.10
2023-05-02T22:21:34.579Z,30.10
2023-05-02T22:24:09.988Z,29.20
2023-05-02T22:26:55.464Z,29.20
2023-05-02T22:29:25.575Z,28.60
2023-05-02T22:32:09.020Z,28.90
2023-05-02T22:34:37.703Z,28.90
2023-05-02T22:37:22.575Z,30.30
2023-05-02T22:39:53.668Z,31.10
2023-05-02T22:42:40.098Z,32.00
2023-05-02T22:45:12.312Z,32.30
2023-05-02T22:47:56.071Z,30.60
2023-05-02T22:50:26.132Z,29.70
2023-05-02T22:53:11.365Z,29.80
2023-05-02T22:55:41.786Z,30.30
2023-05-02T22:58:26.399Z,30.30
2023-05-02T23:00:54.984Z,32.40
2023-05-02T23:03:40.242Z,31.60
2023-05-02T23:06:09.066Z,33.30
2023-05-02T23:08:53.879Z,35.40
2023-05-02T23:11:37.825Z,36.30
2023-05-02T23:14:23.523Z,38.20
2023-05-02T23:16:54.232Z,40.50
2023-05-02T23:19:37.886Z,41.70
2023-05-02T23:22:06.417Z,44.00
2023-05-02T23:24:51.289Z,44.10
2023-05-02T23:27:19.591Z,41.80
2023-05-02T23:30:04.235Z,39.40
2023-05-02T23:32:48.214Z,40.00
2023-05-02T23:35:16.823Z,41.60
2023-05-02T23:38:05.805Z,43.70
2023-05-02T23:40:35.823Z,45.70
2023-05-02T23:43:20.149Z,46.50
2023-05-02T23:45:48.679Z,47.20
2023-05-02T23:48:32.083Z,47.40
2023-05-02T23:51:00.560Z,49.00
2023-05-02T23:53:47.148Z,48.10
2023-05-02T23:56:17.156Z,47.10
2023-05-02T23:59:00.579Z,45.80
